sensor_id;sensor_type;location;lat;lon;timestamp;temperature;humidity
11491;DHT22;5802;52.832;4.758;2024-03-08T00:01:46;24.20;39.10
11491;DHT22;5802;52.832;4.758;2024-03-08T00:04:13;24.20;39.10
11491;DHT22;5802;52.832;4.758;2024-03-08T00:06:40;24.20;39.10
11491;DHT22;5802;52.832;4.758;2024-03-08T00:09:07;24.20;39.00
11491;DHT22;5802;52.832;4.758;2024-03-08T00:11:34;24.20;39.00
11491;DHT22;5802;52.832;4.758;2024-03-08T00:14:01;24.20;39.10
11491;DHT22;5802;52.832;4.758;2024-03-08T00:16:32;24.20;39.10
11491;DHT22;5802;52.832;4.758;2024-03-08T00:19:00;24.10;39.00
11491;DHT22;5802;52.832;4.758;2024-03-08T00:21:27;24.10;39.00
11491;DHT22;5802;52.832;4.758;2024-03-08T00:23:54;24.10;39.00
11491;DHT22;5802;52.832;4.758;2024-03-08T00:26:21;24.10;39.70
11491;DHT22;5802;52.832;4.758;2024-03-08T00:28:48;24.10;39.00
11491;DHT22;5802;52.832;4.758;2024-03-08T00:31:15;24.10;39.10
11491;DHT22;5802;52.832;4.758;2024-03-08T00:33:42;24.10;39.20
11491;DHT22;5802;52.832;4.758;2024-03-08T00:36:10;24.00;39.10
11491;DHT22;5802;52.832;4.758;2024-03-08T00:38:37;24.00;39.20
11491;DHT22;5802;52.832;4.758;2024-03-08T00:41:04;24.00;39.30
11491;DHT22;5802;52.832;4.758;2024-03-08T00:43:31;24.00;39.30
11491;DHT22;5802;52.832;4.758;2024-03-08T00:45:58;24.00;39.30
11491;DHT22;5802;52.832;4.758;2024-03-08T00:48:25;24.00;39.30
11491;DHT22;5802;52.832;4.758;2024-03-08T00:50:51;24.00;39.30
11491;DHT22;5802;52.832;4.758;2024-03-08T00:53:20;24.10;39.20
11491;DHT22;5802;52.832;4.758;2024-03-08T00:55:46;24.30;38.80
11491;DHT22;5802;52.832;4.758;2024-03-08T00:58:13;24.30;38.70
11491;DHT22;5802;52.832;4.758;2024-03-08T01:00:40;24.20;38.70
11491;DHT22;5802;52.832;4.758;2024-03-08T01:03:07;24.20;38.90
11491;DHT22;5802;52.832;4.758;2024-03-08T01:05:34;24.20;38.90
11491;DHT22;5802;52.832;4.758;2024-03-08T01:08:01;24.20;39.00
11491;DHT22;5802;52.832;4.758;2024-03-08T01:10:30;24.10;39.00
11491;DHT22;5802;52.832;4.758;2024-03-08T01:12:57;24.10;39.00
11491;DHT22;5802;52.832;4.758;2024-03-08T01:15:25;24.10;39.00
11491;DHT22;5802;52.832;4.758;2024-03-08T01:17:52;24.10;39.00
11491;DHT22;5802;52.832;4.758;2024-03-08T01:20:19;24.10;39.00
11491;DHT22;5802;52.832;4.758;2024-03-08T01:22:46;24.10;39.00
11491;DHT22;5802;52.832;4.758;2024-03-08T01:25:13;24.20;39.00
11491;DHT22;5802;52.832;4.758;2024-03-08T01:27:41;24.20;39.10
11491;DHT22;5802;52.832;4.758;2024-03-08T01:30:08;24.10;39.60
11491;DHT22;5802;52.832;4.758;2024-03-08T01:32:36;24.20;39.70
11491;DHT22;5802;52.832;4.758;2024-03-08T01:35:04;24.20;39.00
11491;DHT22;5802;52.832;4.758;2024-03-08T01:37:31;24.20;39.00
11491;DHT22;5802;52.832;4.758;2024-03-08T01:39:58;24.20;39.00
11491;DHT22;5802;52.832;4.758;2024-03-08T01:42:25;24.20;39.00
11491;DHT22;5802;52.832;4.758;2024-03-08T01:44:53;24.20;39.00
11491;DHT22;5802;52.832;4.758;2024-03-08T01:47:20;24.20;39.00
11491;DHT22;5802;52.832;4.758;2024-03-08T01:49:48;24.20;39.00
11491;DHT22;5802;52.832;4.758;2024-03-08T01:52:15;24.20;39.00
11491;DHT22;5802;52.832;4.758;2024-03-08T01:54:44;24.20;39.00
11491;DHT22;5802;52.832;4.758;2024-03-08T01:57:11;24.20;38.90
11491;DHT22;5802;52.832;4.758;2024-03-08T01:59:39;24.20;38.90
11491;DHT22;5802;52.832;4.758;2024-03-08T02:02:08;24.20;38.90
11491;DHT22;5802;52.832;4.758;2024-03-08T02:04:39;24.20;38.90
11491;DHT22;5802;52.832;4.758;2024-03-08T02:07:06;24.20;38.90
11491;DHT22;5802;52.832;4.758;2024-03-08T02:09:33;24.20;38.90
11491;DHT22;5802;52.832;4.758;2024-03-08T02:12:00;24.20;38.90
11491;DHT22;5802;52.832;4.758;2024-03-08T02:14:27;24.20;38.80
11491;DHT22;5802;52.832;4.758;2024-03-08T02:16:54;24.20;38.70
11491;DHT22;5802;52.832;4.758;2024-03-08T02:19:24;24.20;38.70
11491;DHT22;5802;52.832;4.758;2024-03-08T02:21:53;24.20;38.70
11491;DHT22;5802;52.832;4.758;2024-03-08T02:24:20;24.20;38.90
11491;DHT22;5802;52.832;4.758;2024-03-08T02:26:49;24.20;38.90
11491;DHT22;5802;52.832;4.758;2024-03-08T02:29:16;24.20;39.00
11491;DHT22;5802;52.832;4.758;2024-03-08T02:31:43;24.20;39.00
11491;DHT22;5802;52.832;4.758;2024-03-08T02:34:09;24.20;39.80
11491;DHT22;5802;52.832;4.758;2024-03-08T02:36:36;24.30;39.20
11491;DHT22;5802;52.832;4.758;2024-03-08T02:39:05;24.30;39.20
11491;DHT22;5802;52.832;4.758;2024-03-08T02:41:31;24.30;39.20
11491;DHT22;5802;52.832;4.758;2024-03-08T02:43:58;24.30;39.30
11491;DHT22;5802;52.832;4.758;2024-03-08T02:46:26;24.30;39.30
11491;DHT22;5802;52.832;4.758;2024-03-08T02:48:52;24.30;39.30
11491;DHT22;5802;52.832;4.758;2024-03-08T02:51:19;24.30;39.30
11491;DHT22;5802;52.832;4.758;2024-03-08T02:53:46;24.30;39.30
11491;DHT22;5802;52.832;4.758;2024-03-08T02:56:16;24.30;39.30
11491;DHT22;5802;52.832;4.758;2024-03-08T02:58:43;24.40;39.30
11491;DHT22;5802;52.832;4.758;2024-03-08T03:01:14;24.40;39.30
11491;DHT22;5802;52.832;4.758;2024-03-08T03:03:41;24.40;39.50
11491;DHT22;5802;52.832;4.758;2024-03-08T03:06:08;24.40;40.00
11491;DHT22;5802;52.832;4.758;2024-03-08T03:08:35;24.40;39.30
11491;DHT22;5802;52.832;4.758;2024-03-08T03:11:02;24.40;39.30
11491;DHT22;5802;52.832;4.758;2024-03-08T03:13:30;24.40;39.30
11491;DHT22;5802;52.832;4.758;2024-03-08T03:15:57;24.40;39.30
11491;DHT22;5802;52.832;4.758;2024-03-08T03:18:24;24.50;39.30
11491;DHT22;5802;52.832;4.758;2024-03-08T03:20:52;24.50;39.30
11491;DHT22;5802;52.832;4.758;2024-03-08T03:23:19;24.50;39.30
11491;DHT22;5802;52.832;4.758;2024-03-08T03:25:46;24.50;39.30
11491;DHT22;5802;52.832;4.758;2024-03-08T03:28:13;24.50;39.30
11491;DHT22;5802;52.832;4.758;2024-03-08T03:30:45;24.50;39.30
11491;DHT22;5802;52.832;4.758;2024-03-08T03:33:12;24.50;39.30
11491;DHT22;5802;52.832;4.758;2024-03-08T03:35:40;24.50;39.30
11491;DHT22;5802;52.832;4.758;2024-03-08T03:38:08;24.50;39.30
11491;DHT22;5802;52.832;4.758;2024-03-08T03:40:36;24.50;39.30
11491;DHT22;5802;52.832;4.758;2024-03-08T03:43:03;24.50;39.30
11491;DHT22;5802;52.832;4.758;2024-03-08T03:45:31;24.50;39.20
11491;DHT22;5802;52.832;4.758;2024-03-08T03:48:02;24.60;39.30
11491;DHT22;5802;52.832;4.758;2024-03-08T03:50:29;24.60;39.30
11491;DHT22;5802;52.832;4.758;2024-03-08T03:52:59;24.60;39.30
11491;DHT22;5802;52.832;4.758;2024-03-08T03:55:27;24.60;40.00
11491;DHT22;5802;52.832;4.758;2024-03-08T03:57:54;24.60;39.30
11491;DHT22;5802;52.832;4.758;2024-03-08T04:00:21;24.60;39.30
11491;DHT22;5802;52.832;4.758;2024-03-08T04:02:48;24.60;39.30
11491;DHT22;5802;52.832;4.758;2024-03-08T04:05:18;24.60;39.90
11491;DHT22;5802;52.832;4.758;2024-03-08T04:07:45;24.60;39.30
11491;DHT22;5802;52.832;4.758;2024-03-08T04:10:12;24.60;39.30
11491;DHT22;5802;52.832;4.758;2024-03-08T04:12:39;24.60;39.30
11491;DHT22;5802;52.832;4.758;2024-03-08T04:15:06;24.70;39.30
11491;DHT22;5802;52.832;4.758;2024-03-08T04:17:33;24.70;39.90
11491;DHT22;5802;52.832;4.758;2024-03-08T04:20:02;24.70;39.20
11491;DHT22;5802;52.832;4.758;2024-03-08T04:22:36;24.70;39.30
11491;DHT22;5802;52.832;4.758;2024-03-08T04:25:04;24.70;39.30
11491;DHT22;5802;52.832;4.758;2024-03-08T04:27:32;24.70;39.20
11491;DHT22;5802;52.832;4.758;2024-03-08T04:29:59;24.70;39.20
11491;DHT22;5802;52.832;4.758;2024-03-08T04:32:26;24.70;39.30
11491;DHT22;5802;52.832;4.758;2024-03-08T04:34:55;24.70;39.20
11491;DHT22;5802;52.832;4.758;2024-03-08T04:37:23;24.70;39.90
11491;DHT22;5802;52.832;4.758;2024-03-08T04:39:52;24.70;39.30
11491;DHT22;5802;52.832;4.758;2024-03-08T04:42:18;24.70;39.20
11491;DHT22;5802;52.832;4.758;2024-03-08T04:44:45;24.70;39.20
11491;DHT22;5802;52.832;4.758;2024-03-08T04:47:12;24.70;39.20
11491;DHT22;5802;52.832;4.758;2024-03-08T04:49:39;24.70;39.20
11491;DHT22;5802;52.832;4.758;2024-03-08T04:52:06;24.70;39.20
11491;DHT22;5802;52.832;4.758;2024-03-08T04:54:33;24.80;39.30
11491;DHT22;5802;52.832;4.758;2024-03-08T04:57:01;24.70;39.20
11491;DHT22;5802;52.832;4.758;2024-03-08T04:59:30;24.80;39.20
11491;DHT22;5802;52.832;4.758;2024-03-08T05:01:57;24.80;39.20
11491;DHT22;5802;52.832;4.758;2024-03-08T05:04:24;24.80;39.20
11491;DHT22;5802;52.832;4.758;2024-03-08T05:06:50;24.80;39.20
11491;DHT22;5802;52.832;4.758;2024-03-08T05:09:17;24.80;39.20
11491;DHT22;5802;52.832;4.758;2024-03-08T05:11:45;24.80;39.20
11491;DHT22;5802;52.832;4.758;2024-03-08T05:14:14;24.80;39.20
11491;DHT22;5802;52.832;4.758;2024-03-08T05:16:42;24.80;39.10
11491;DHT22;5802;52.832;4.758;2024-03-08T05:19:09;24.80;39.20
11491;DHT22;5802;52.832;4.758;2024-03-08T05:21:36;24.80;39.20
11491;DHT22;5802;52.832;4.758;2024-03-08T05:24:03;24.80;39.10
11491;DHT22;5802;52.832;4.758;2024-03-08T05:26:30;24.80;39.10
11491;DHT22;5802;52.832;4.758;2024-03-08T05:28:58;24.80;39.10
11491;DHT22;5802;52.832;4.758;2024-03-08T05:31:27;24.80;39.10
11491;DHT22;5802;52.832;4.758;2024-03-08T05:33:54;24.80;39.10
11491;DHT22;5802;52.832;4.758;2024-03-08T05:36:21;24.80;39.10
11491;DHT22;5802;52.832;4.758;2024-03-08T05:38:48;24.80;39.10
11491;DHT22;5802;52.832;4.758;2024-03-08T05:41:16;24.80;39.00
11491;DHT22;5802;52.832;4.758;2024-03-08T05:43:43;24.90;39.10
11491;DHT22;5802;52.832;4.758;2024-03-08T05:46:10;24.90;39.10
11491;DHT22;5802;52.832;4.758;2024-03-08T05:48:39;24.80;39.00
11491;DHT22;5802;52.832;4.758;2024-03-08T05:51:05;24.90;39.10
11491;DHT22;5802;52.832;4.758;2024-03-08T05:53:32;24.90;39.10
11491;DHT22;5802;52.832;4.758;2024-03-08T05:55:59;24.90;39.10
11491;DHT22;5802;52.832;4.758;2024-03-08T05:58:27;24.90;39.10
11491;DHT22;5802;52.832;4.758;2024-03-08T06:00:57;24.90;39.10
11491;DHT22;5802;52.832;4.758;2024-03-08T06:03:23;24.90;39.10
11491;DHT22;5802;52.832;4.758;2024-03-08T06:05:52;24.90;39.10
11491;DHT22;5802;52.832;4.758;2024-03-08T06:08:18;24.80;39.00
11491;DHT22;5802;52.832;4.758;2024-03-08T06:10:45;24.90;39.10
11491;DHT22;5802;52.832;4.758;2024-03-08T06:13:15;24.90;39.10
11491;DHT22;5802;52.832;4.758;2024-03-08T06:15:41;24.90;39.10
11491;DHT22;5802;52.832;4.758;2024-03-08T06:18:08;24.90;39.00
11491;DHT22;5802;52.832;4.758;2024-03-08T06:20:37;24.90;39.10
11491;DHT22;5802;52.832;4.758;2024-03-08T06:23:05;24.90;39.10
11491;DHT22;5802;52.832;4.758;2024-03-08T06:25:32;24.90;39.10
11491;DHT22;5802;52.832;4.758;2024-03-08T06:28:00;24.90;39.00
11491;DHT22;5802;52.832;4.758;2024-03-08T06:30:27;24.90;39.00
11491;DHT22;5802;52.832;4.758;2024-03-08T06:32:54;24.90;39.10
11491;DHT22;5802;52.832;4.758;2024-03-08T06:35:21;24.90;39.00
11491;DHT22;5802;52.832;4.758;2024-03-08T06:37:48;24.90;39.00
11491;DHT22;5802;52.832;4.758;2024-03-08T06:40:16;24.90;39.00
11491;DHT22;5802;52.832;4.758;2024-03-08T06:42:43;24.90;39.00
11491;DHT22;5802;52.832;4.758;2024-03-08T06:45:12;24.90;39.00
11491;DHT22;5802;52.832;4.758;2024-03-08T06:47:41;24.90;39.00
11491;DHT22;5802;52.832;4.758;2024-03-08T06:50:09;24.90;39.00
11491;DHT22;5802;52.832;4.758;2024-03-08T06:52:36;24.90;39.00
11491;DHT22;5802;52.832;4.758;2024-03-08T06:55:04;24.90;39.00
11491;DHT22;5802;52.832;4.758;2024-03-08T06:57:33;24.90;38.90
11491;DHT22;5802;52.832;4.758;2024-03-08T07:00:00;24.90;38.90
11491;DHT22;5802;52.832;4.758;2024-03-08T07:02:27;25.00;39.00
11491;DHT22;5802;52.832;4.758;2024-03-08T07:04:53;24.90;38.90
11491;DHT22;5802;52.832;4.758;2024-03-08T07:07:21;25.00;39.00
11491;DHT22;5802;52.832;4.758;2024-03-08T07:09:48;24.90;39.00
11491;DHT22;5802;52.832;4.758;2024-03-08T07:12:16;25.00;39.00
11491;DHT22;5802;52.832;4.758;2024-03-08T07:14:45;25.00;38.90
11491;DHT22;5802;52.832;4.758;2024-03-08T07:17:12;25.00;39.00
11491;DHT22;5802;52.832;4.758;2024-03-08T07:19:39;25.00;38.90
11491;DHT22;5802;52.832;4.758;2024-03-08T07:22:06;25.00;38.90
11491;DHT22;5802;52.832;4.758;2024-03-08T07:24:35;25.00;38.90
11491;DHT22;5802;52.832;4.758;2024-03-08T07:27:21;25.00;38.90
11491;DHT22;5802;52.832;4.758;2024-03-08T07:29:49;25.00;38.80
11491;DHT22;5802;52.832;4.758;2024-03-08T07:32:16;25.00;38.80
11491;DHT22;5802;52.832;4.758;2024-03-08T07:34:47;25.10;38.90
11491;DHT22;5802;52.832;4.758;2024-03-08T07:37:16;25.10;38.90
11491;DHT22;5802;52.832;4.758;2024-03-08T07:39:43;25.10;38.90
11491;DHT22;5802;52.832;4.758;2024-03-08T07:42:09;25.10;39.50
11491;DHT22;5802;52.832;4.758;2024-03-08T07:44:37;25.10;38.80
11491;DHT22;5802;52.832;4.758;2024-03-08T07:47:06;25.10;38.80
11491;DHT22;5802;52.832;4.758;2024-03-08T07:49:35;25.10;38.70
11491;DHT22;5802;52.832;4.758;2024-03-08T07:52:02;25.10;38.70
11491;DHT22;5802;52.832;4.758;2024-03-08T07:54:32;25.20;38.80
11491;DHT22;5802;52.832;4.758;2024-03-08T07:57:00;25.20;38.70
11491;DHT22;5802;52.832;4.758;2024-03-08T07:59:28;25.20;38.70
11491;DHT22;5802;52.832;4.758;2024-03-08T08:01:55;25.20;38.70
11491;DHT22;5802;52.832;4.758;2024-03-08T08:04:24;25.30;38.70
11491;DHT22;5802;52.832;4.758;2024-03-08T08:06:52;25.30;38.60
11491;DHT22;5802;52.832;4.758;2024-03-08T08:09:20;25.30;38.60
11491;DHT22;5802;52.832;4.758;2024-03-08T08:11:54;25.30;38.50
11491;DHT22;5802;52.832;4.758;2024-03-08T08:14:21;25.30;38.50
11491;DHT22;5802;52.832;4.758;2024-03-08T08:16:48;25.40;38.60
11491;DHT22;5802;52.832;4.758;2024-03-08T08:19:18;25.40;38.40
11491;DHT22;5802;52.832;4.758;2024-03-08T08:21:46;25.40;38.40
11491;DHT22;5802;52.832;4.758;2024-03-08T08:24:14;25.50;39.00
11491;DHT22;5802;52.832;4.758;2024-03-08T08:26:41;25.50;38.40
11491;DHT22;5802;52.832;4.758;2024-03-08T08:29:10;25.50;38.30
11491;DHT22;5802;52.832;4.758;2024-03-08T08:31:37;25.50;38.30
11491;DHT22;5802;52.832;4.758;2024-03-08T08:34:03;25.60;38.20
11491;DHT22;5802;52.832;4.758;2024-03-08T08:36:31;25.60;38.20
11491;DHT22;5802;52.832;4.758;2024-03-08T08:39:00;25.60;38.20
11491;DHT22;5802;52.832;4.758;2024-03-08T08:41:28;25.60;38.10
11491;DHT22;5802;52.832;4.758;2024-03-08T08:43:55;25.70;38.10
11491;DHT22;5802;52.832;4.758;2024-03-08T08:46:22;25.70;38.10
11491;DHT22;5802;52.832;4.758;2024-03-08T08:48:49;25.70;38.10
11491;DHT22;5802;52.832;4.758;2024-03-08T08:51:16;25.70;38.00
11491;DHT22;5802;52.832;4.758;2024-03-08T08:53:43;25.70;37.90
11491;DHT22;5802;52.832;4.758;2024-03-08T08:56:12;25.80;38.00
11491;DHT22;5802;52.832;4.758;2024-03-08T08:58:39;25.80;38.00
11491;DHT22;5802;52.832;4.758;2024-03-08T09:01:08;25.80;37.80
11491;DHT22;5802;52.832;4.758;2024-03-08T09:03:35;25.80;37.80
11491;DHT22;5802;52.832;4.758;2024-03-08T09:06:03;25.80;37.80
11491;DHT22;5802;52.832;4.758;2024-03-08T09:08:30;25.90;37.80
11491;DHT22;5802;52.832;4.758;2024-03-08T09:10:57;25.90;37.70
11491;DHT22;5802;52.832;4.758;2024-03-08T09:13:26;25.90;37.60
11491;DHT22;5802;52.832;4.758;2024-03-08T09:15:53;25.90;37.60
11491;DHT22;5802;52.832;4.758;2024-03-08T09:18:20;26.00;37.60
11491;DHT22;5802;52.832;4.758;2024-03-08T09:20:47;26.00;37.60
11491;DHT22;5802;52.832;4.758;2024-03-08T09:23:14;26.10;37.60
11491;DHT22;5802;52.832;4.758;2024-03-08T09:25:42;26.10;37.50
11491;DHT22;5802;52.832;4.758;2024-03-08T09:28:09;26.10;37.50
11491;DHT22;5802;52.832;4.758;2024-03-08T09:30:39;26.10;37.50
11491;DHT22;5802;52.832;4.758;2024-03-08T09:33:06;26.10;37.40
11491;DHT22;5802;52.832;4.758;2024-03-08T09:35:33;26.20;37.40
11491;DHT22;5802;52.832;4.758;2024-03-08T09:38:01;26.20;38.00
11491;DHT22;5802;52.832;4.758;2024-03-08T09:40:30;26.20;37.40
11491;DHT22;5802;52.832;4.758;2024-03-08T09:42:58;26.20;37.20
11491;DHT22;5802;52.832;4.758;2024-03-08T09:45:25;26.20;37.20
11491;DHT22;5802;52.832;4.758;2024-03-08T09:47:54;26.30;37.30
11491;DHT22;5802;52.832;4.758;2024-03-08T09:50:21;26.30;37.20
11491;DHT22;5802;52.832;4.758;2024-03-08T09:52:49;26.30;37.20
11491;DHT22;5802;52.832;4.758;2024-03-08T09:55:16;26.40;37.10
11491;DHT22;5802;52.832;4.758;2024-03-08T09:57:48;26.40;37.10
11491;DHT22;5802;52.832;4.758;2024-03-08T10:00:42;26.40;37.10
11491;DHT22;5802;52.832;4.758;2024-03-08T10:03:10;26.40;37.00
11491;DHT22;5802;52.832;4.758;2024-03-08T10:05:40;26.50;37.10
11491;DHT22;5802;52.832;4.758;2024-03-08T10:08:10;26.50;37.00
11491;DHT22;5802;52.832;4.758;2024-03-08T10:10:37;26.50;36.90
11491;DHT22;5802;52.832;4.758;2024-03-08T10:13:05;26.50;36.90
11491;DHT22;5802;52.832;4.758;2024-03-08T10:15:32;26.50;36.90
11491;DHT22;5802;52.832;4.758;2024-03-08T10:17:59;26.60;36.90
11491;DHT22;5802;52.832;4.758;2024-03-08T10:20:30;26.60;36.80
11491;DHT22;5802;52.832;4.758;2024-03-08T10:22:59;26.60;36.80
11491;DHT22;5802;52.832;4.758;2024-03-08T10:25:26;26.70;36.90
11491;DHT22;5802;52.832;4.758;2024-03-08T10:27:53;26.70;36.80
11491;DHT22;5802;52.832;4.758;2024-03-08T10:30:20;26.70;36.70
11491;DHT22;5802;52.832;4.758;2024-03-08T10:32:47;26.70;37.00
11491;DHT22;5802;52.832;4.758;2024-03-08T10:35:14;26.70;36.60
11491;DHT22;5802;52.832;4.758;2024-03-08T10:37:45;26.80;36.60
11491;DHT22;5802;52.832;4.758;2024-03-08T10:40:16;26.80;36.60
11491;DHT22;5802;52.832;4.758;2024-03-08T10:42:51;26.80;36.60
11491;DHT22;5802;52.832;4.758;2024-03-08T10:45:31;26.80;36.50
11491;DHT22;5802;52.832;4.758;2024-03-08T10:48:20;26.90;36.60
11491;DHT22;5802;52.832;4.758;2024-03-08T10:50:53;26.90;36.60
11491;DHT22;5802;52.832;4.758;2024-03-08T10:53:23;26.90;36.50
11491;DHT22;5802;52.832;4.758;2024-03-08T10:55:52;26.90;36.40
11491;DHT22;5802;52.832;4.758;2024-03-08T10:58:21;26.90;36.30
11491;DHT22;5802;52.832;4.758;2024-03-08T11:00:52;26.90;36.20
11491;DHT22;5802;52.832;4.758;2024-03-08T11:03:44;27.00;36.90
11491;DHT22;5802;52.832;4.758;2024-03-08T11:06:16;27.00;36.30
11491;DHT22;5802;52.832;4.758;2024-03-08T11:08:46;27.00;36.20
11491;DHT22;5802;52.832;4.758;2024-03-08T11:11:26;27.00;36.30
11491;DHT22;5802;52.832;4.758;2024-03-08T11:13:55;27.00;36.20
11491;DHT22;5802;52.832;4.758;2024-03-08T11:16:38;27.10;36.20
11491;DHT22;5802;52.832;4.758;2024-03-08T11:19:24;27.10;36.20
11491;DHT22;5802;52.832;4.758;2024-03-08T11:22:04;27.10;36.20
11491;DHT22;5802;52.832;4.758;2024-03-08T11:24:39;27.10;36.20
11491;DHT22;5802;52.832;4.758;2024-03-08T11:27:10;27.10;36.20
11491;DHT22;5802;52.832;4.758;2024-03-08T11:29:38;27.10;36.20
11491;DHT22;5802;52.832;4.758;2024-03-08T11:32:08;27.20;36.20
11491;DHT22;5802;52.832;4.758;2024-03-08T11:34:36;27.20;36.10
11491;DHT22;5802;52.832;4.758;2024-03-08T11:37:08;27.20;36.10
11491;DHT22;5802;52.832;4.758;2024-03-08T11:39:39;27.30;36.10
11491;DHT22;5802;52.832;4.758;2024-03-08T11:42:06;27.20;36.10
11491;DHT22;5802;52.832;4.758;2024-03-08T11:44:33;27.30;36.10
11491;DHT22;5802;52.832;4.758;2024-03-08T11:47:01;27.30;36.00
11491;DHT22;5802;52.832;4.758;2024-03-08T11:49:31;27.30;36.00
11491;DHT22;5802;52.832;4.758;2024-03-08T11:51:59;27.40;36.10
11491;DHT22;5802;52.832;4.758;2024-03-08T11:54:26;27.40;36.00
11491;DHT22;5802;52.832;4.758;2024-03-08T11:56:54;27.40;36.00
11491;DHT22;5802;52.832;4.758;2024-03-08T11:59:22;27.40;35.90
11491;DHT22;5802;52.832;4.758;2024-03-08T12:02:02;27.40;36.00
11491;DHT22;5802;52.832;4.758;2024-03-08T12:04:30;27.50;36.00
11491;DHT22;5802;52.832;4.758;2024-03-08T12:06:59;27.50;36.00
11491;DHT22;5802;52.832;4.758;2024-03-08T12:09:28;27.50;35.90
11491;DHT22;5802;52.832;4.758;2024-03-08T12:11:58;27.50;35.90
11491;DHT22;5802;52.832;4.758;2024-03-08T12:14:25;27.50;35.90
11491;DHT22;5802;52.832;4.758;2024-03-08T12:16:52;27.50;36.50
11491;DHT22;5802;52.832;4.758;2024-03-08T12:19:19;27.50;35.80
11491;DHT22;5802;52.832;4.758;2024-03-08T12:21:46;27.60;35.80
11491;DHT22;5802;52.832;4.758;2024-03-08T12:24:15;27.60;35.80
11491;DHT22;5802;52.832;4.758;2024-03-08T12:26:45;27.60;35.80
11491;DHT22;5802;52.832;4.758;2024-03-08T12:29:19;27.60;35.80
11491;DHT22;5802;52.832;4.758;2024-03-08T12:31:50;27.60;35.80
11491;DHT22;5802;52.832;4.758;2024-03-08T12:34:17;27.60;35.80
11491;DHT22;5802;52.832;4.758;2024-03-08T12:36:46;27.60;35.70
11491;DHT22;5802;52.832;4.758;2024-03-08T12:39:16;27.60;35.80
11491;DHT22;5802;52.832;4.758;2024-03-08T12:41:43;27.60;35.80
11491;DHT22;5802;52.832;4.758;2024-03-08T12:44:12;27.60;35.70
11491;DHT22;5802;52.832;4.758;2024-03-08T12:46:40;27.70;35.80
11491;DHT22;5802;52.832;4.758;2024-03-08T12:49:10;27.70;35.80
11491;DHT22;5802;52.832;4.758;2024-03-08T12:51:38;27.70;35.80
11491;DHT22;5802;52.832;4.758;2024-03-08T12:54:05;27.70;35.70
11491;DHT22;5802;52.832;4.758;2024-03-08T12:56:34;27.70;35.70
11491;DHT22;5802;52.832;4.758;2024-03-08T12:59:04;27.70;35.70
11491;DHT22;5802;52.832;4.758;2024-03-08T13:01:31;27.70;35.60
11491;DHT22;5802;52.832;4.758;2024-03-08T13:04:00;27.80;35.70
11491;DHT22;5802;52.832;4.758;2024-03-08T13:06:27;27.80;35.70
11491;DHT22;5802;52.832;4.758;2024-03-08T13:08:54;27.80;35.70
11491;DHT22;5802;52.832;4.758;2024-03-08T13:11:21;27.80;35.70
11491;DHT22;5802;52.832;4.758;2024-03-08T13:13:49;27.80;35.80
11491;DHT22;5802;52.832;4.758;2024-03-08T13:16:15;27.80;35.70
11491;DHT22;5802;52.832;4.758;2024-03-08T13:18:44;27.80;35.70
11491;DHT22;5802;52.832;4.758;2024-03-08T13:21:15;27.80;35.70
11491;DHT22;5802;52.832;4.758;2024-03-08T13:23:45;27.80;35.70
11491;DHT22;5802;52.832;4.758;2024-03-08T13:26:16;27.80;35.70
11491;DHT22;5802;52.832;4.758;2024-03-08T13:28:43;27.80;35.70
11491;DHT22;5802;52.832;4.758;2024-03-08T13:31:09;27.80;35.70
11491;DHT22;5802;52.832;4.758;2024-03-08T13:33:36;27.80;35.70
11491;DHT22;5802;52.832;4.758;2024-03-08T13:36:05;27.80;35.70
11491;DHT22;5802;52.832;4.758;2024-03-08T13:38:44;27.80;35.70
11491;DHT22;5802;52.832;4.758;2024-03-08T13:41:12;27.80;35.70
11491;DHT22;5802;52.832;4.758;2024-03-08T13:43:40;27.80;35.60
11491;DHT22;5802;52.832;4.758;2024-03-08T13:46:07;27.80;35.60
11491;DHT22;5802;52.832;4.758;2024-03-08T13:48:35;27.80;35.70
11491;DHT22;5802;52.832;4.758;2024-03-08T13:51:04;27.80;35.70
11491;DHT22;5802;52.832;4.758;2024-03-08T13:53:31;27.80;35.70
11491;DHT22;5802;52.832;4.758;2024-03-08T13:56:00;27.80;36.30
11491;DHT22;5802;52.832;4.758;2024-03-08T13:58:27;27.80;35.70
11491;DHT22;5802;52.832;4.758;2024-03-08T14:00:54;27.80;35.70
11491;DHT22;5802;52.832;4.758;2024-03-08T14:03:21;27.80;35.70
11491;DHT22;5802;52.832;4.758;2024-03-08T14:05:49;27.80;35.70
11491;DHT22;5802;52.832;4.758;2024-03-08T14:08:16;27.80;35.70
11491;DHT22;5802;52.832;4.758;2024-03-08T14:10:43;27.80;35.80
11491;DHT22;5802;52.832;4.758;2024-03-08T14:13:13;27.80;35.70
11491;DHT22;5802;52.832;4.758;2024-03-08T14:15:41;27.80;35.80
11491;DHT22;5802;52.832;4.758;2024-03-08T14:18:10;27.80;35.80
11491;DHT22;5802;52.832;4.758;2024-03-08T14:20:41;27.80;35.80
11491;DHT22;5802;52.832;4.758;2024-03-08T14:23:12;27.70;35.80
11491;DHT22;5802;52.832;4.758;2024-03-08T14:25:43;27.70;35.80
11491;DHT22;5802;52.832;4.758;2024-03-08T14:28:15;27.70;35.90
11491;DHT22;5802;52.832;4.758;2024-03-08T14:30:47;27.70;36.00
11491;DHT22;5802;52.832;4.758;2024-03-08T14:33:15;27.70;35.90
11491;DHT22;5802;52.832;4.758;2024-03-08T14:35:42;27.60;35.90
11491;DHT22;5802;52.832;4.758;2024-03-08T14:38:09;27.60;35.90
11491;DHT22;5802;52.832;4.758;2024-03-08T14:40:36;27.60;36.60
11491;DHT22;5802;52.832;4.758;2024-03-08T14:43:04;27.60;36.00
11491;DHT22;5802;52.832;4.758;2024-03-08T14:45:32;27.60;36.00
11491;DHT22;5802;52.832;4.758;2024-03-08T14:48:00;27.60;35.80
11491;DHT22;5802;52.832;4.758;2024-03-08T14:50:28;27.60;35.90
11491;DHT22;5802;52.832;4.758;2024-03-08T14:52:55;27.60;35.70
11491;DHT22;5802;52.832;4.758;2024-03-08T14:55:22;27.60;35.70
11491;DHT22;5802;52.832;4.758;2024-03-08T14:57:49;27.50;35.30
11491;DHT22;5802;52.832;4.758;2024-03-08T15:00:17;27.50;35.10
11491;DHT22;5802;52.832;4.758;2024-03-08T15:02:53;27.50;35.00
11491;DHT22;5802;52.832;4.758;2024-03-08T15:05:20;27.50;34.90
11491;DHT22;5802;52.832;4.758;2024-03-08T15:07:52;27.50;35.00
11491;DHT22;5802;52.832;4.758;2024-03-08T15:10:19;27.50;35.10
11491;DHT22;5802;52.832;4.758;2024-03-08T15:12:48;27.50;35.30
11491;DHT22;5802;52.832;4.758;2024-03-08T15:15:15;27.40;35.40
11491;DHT22;5802;52.832;4.758;2024-03-08T15:17:43;27.40;35.40
11491;DHT22;5802;52.832;4.758;2024-03-08T15:20:14;27.40;35.50
11491;DHT22;5802;52.832;4.758;2024-03-08T15:22:42;27.40;35.60
11491;DHT22;5802;52.832;4.758;2024-03-08T15:25:10;27.40;35.60
11491;DHT22;5802;52.832;4.758;2024-03-08T15:27:43;27.40;35.90
11491;DHT22;5802;52.832;4.758;2024-03-08T15:30:10;27.40;36.00
11491;DHT22;5802;52.832;4.758;2024-03-08T15:32:39;27.40;36.20
11491;DHT22;5802;52.832;4.758;2024-03-08T15:35:07;27.40;36.30
11491;DHT22;5802;52.832;4.758;2024-03-08T15:37:40;27.30;36.30
11491;DHT22;5802;52.832;4.758;2024-03-08T15:40:09;27.30;36.40
11491;DHT22;5802;52.832;4.758;2024-03-08T15:42:54;27.30;36.50
11491;DHT22;5802;52.832;4.758;2024-03-08T15:45:21;27.30;36.60
11491;DHT22;5802;52.832;4.758;2024-03-08T15:47:49;27.30;36.70
11491;DHT22;5802;52.832;4.758;2024-03-08T15:50:16;27.30;36.70
11491;DHT22;5802;52.832;4.758;2024-03-08T15:52:45;27.20;36.80